sensor_id;sensor_type;location;lat;lon;timestamp;P1;durP1;ratioP1;P2;durP2;ratioP2
9422;SDS011;65863;49.506;10.400;2023-08-20T00:00:01;13.10;;;6.50;;
9422;SDS011;65863;49.506;10.400;2023-08-20T00:03:00;7.43;;;6.20;;
9422;SDS011;65863;49.506;10.400;2023-08-20T00:05:47;14.50;;;6.60;;
9422;SDS011;65863;49.506;10.400;2023-08-20T00:08:32;7.60;;;5.77;;
9422;SDS011;65863;49.506;10.400;2023-08-20T00:11:16;9.03;;;5.60;;
9422;SDS011;65863;49.506;10.400;2023-08-20T00:14:01;7.53;;;5.70;;
9422;SDS011;65863;49.506;10.400;2023-08-20T00:16:45;5.83;;;5.23;;
9422;SDS011;65863;49.506;10.400;2023-08-20T00:19:30;8.00;;;5.73;;
9422;SDS011;65863;49.506;10.400;2023-08-20T00:22:14;7.93;;;5.87;;
9422;SDS011;65863;49.506;10.400;2023-08-20T00:24:58;11.30;;;6.73;;
9422;SDS011;65863;49.506;10.400;2023-08-20T00:27:43;7.87;;;6.60;;
9422;SDS011;65863;49.506;10.400;2023-08-20T00:30:28;8.53;;;6.93;;
9422;SDS011;65863;49.506;10.400;2023-08-20T00:33:12;9.67;;;6.53;;
9422;SDS011;65863;49.506;10.400;2023-08-20T00:35:57;7.70;;;6.77;;
9422;SDS011;65863;49.506;10.400;2023-08-20T00:38:42;7.17;;;6.47;;
9422;SDS011;65863;49.506;10.400;2023-08-20T00:41:26;11.03;;;6.50;;
9422;SDS011;65863;49.506;10.400;2023-08-20T00:44:10;11.40;;;6.70;;
9422;SDS011;65863;49.506;10.400;2023-08-20T00:46:54;7.90;;;6.93;;
9422;SDS011;65863;49.506;10.400;2023-08-20T00:49:39;9.70;;;6.47;;
9422;SDS011;65863;49.506;10.400;2023-08-20T00:52:23;7.00;;;6.30;;
9422;SDS011;65863;49.506;10.400;2023-08-20T00:55:09;8.30;;;7.50;;
9422;SDS011;65863;49.506;10.400;2023-08-20T00:57:54;9.43;;;6.57;;
9422;SDS011;65863;49.506;10.400;2023-08-20T01:00:38;10.63;;;7.43;;
9422;SDS011;65863;49.506;10.400;2023-08-20T01:03:22;7.43;;;6.73;;
9422;SDS011;65863;49.506;10.400;2023-08-20T01:09:36;7.00;;;6.30;;
9422;SDS011;65863;49.506;10.400;2023-08-20T01:12:29;8.77;;;6.83;;
9422;SDS011;65863;49.506;10.400;2023-08-20T01:15:15;9.73;;;7.20;;
9422;SDS011;65863;49.506;10.400;2023-08-20T01:18:01;10.53;;;6.80;;
9422;SDS011;65863;49.506;10.400;2023-08-20T01:20:47;9.20;;;8.27;;
9422;SDS011;65863;49.506;10.400;2023-08-20T01:23:43;8.70;;;7.90;;
9422;SDS011;65863;49.506;10.400;2023-08-20T01:26:48;9.93;;;8.47;;
9422;SDS011;65863;49.506;10.400;2023-08-20T01:29:52;8.70;;;7.80;;
9422;SDS011;65863;49.506;10.400;2023-08-20T01:32:36;8.93;;;8.03;;
9422;SDS011;65863;49.506;10.400;2023-08-20T01:35:22;8.63;;;7.83;;
9422;SDS011;65863;49.506;10.400;2023-08-20T01:38:19;11.20;;;6.93;;
9422;SDS011;65863;49.506;10.400;2023-08-20T01:41:04;10.97;;;7.97;;
9422;SDS011;65863;49.506;10.400;2023-08-20T01:43:50;8.63;;;7.20;;
9422;SDS011;65863;49.506;10.400;2023-08-20T01:46:34;9.20;;;7.50;;
9422;SDS011;65863;49.506;10.400;2023-08-20T01:49:18;10.83;;;7.67;;
9422;SDS011;65863;49.506;10.400;2023-08-20T01:52:02;11.57;;;8.30;;
9422;SDS011;65863;49.506;10.400;2023-08-20T01:54:48;9.20;;;8.17;;
9422;SDS011;65863;49.506;10.400;2023-08-20T01:57:32;9.07;;;8.13;;
9422;SDS011;65863;49.506;10.400;2023-08-20T02:00:17;15.17;;;7.70;;
9422;SDS011;65863;49.506;10.400;2023-08-20T02:03:01;12.27;;;7.90;;
9422;SDS011;65863;49.506;10.400;2023-08-20T02:05:46;11.37;;;7.60;;
9422;SDS011;65863;49.506;10.400;2023-08-20T02:08:30;10.53;;;7.57;;
9422;SDS011;65863;49.506;10.400;2023-08-20T02:11:14;10.67;;;7.83;;
9422;SDS011;65863;49.506;10.400;2023-08-20T02:13:58;8.50;;;7.23;;
9422;SDS011;65863;49.506;10.400;2023-08-20T02:16:42;8.30;;;7.43;;
9422;SDS011;65863;49.506;10.400;2023-08-20T02:19:27;10.03;;;7.77;;
9422;SDS011;65863;49.506;10.400;2023-08-20T02:22:11;11.93;;;7.97;;
9422;SDS011;65863;49.506;10.400;2023-08-20T02:24:55;10.17;;;7.30;;
9422;SDS011;65863;49.506;10.400;2023-08-20T02:27:39;13.77;;;8.63;;
9422;SDS011;65863;49.506;10.400;2023-08-20T02:30:23;10.20;;;8.53;;
9422;SDS011;65863;49.506;10.400;2023-08-20T02:33:08;10.20;;;8.60;;
9422;SDS011;65863;49.506;10.400;2023-08-20T02:35:52;9.20;;;8.30;;
9422;SDS011;65863;49.506;10.400;2023-08-20T02:38:36;9.23;;;8.23;;
9422;SDS011;65863;49.506;10.400;2023-08-20T02:41:20;10.67;;;8.03;;
9422;SDS011;65863;49.506;10.400;2023-08-20T02:44:05;10.97;;;7.67;;
9422;SDS011;65863;49.506;10.400;2023-08-20T02:46:49;10.33;;;8.23;;
9422;SDS011;65863;49.506;10.400;2023-08-20T02:49:33;8.80;;;7.70;;
9422;SDS011;65863;49.506;10.400;2023-08-20T02:52:17;9.33;;;6.77;;
9422;SDS011;65863;49.506;10.400;2023-08-20T02:55:01;7.37;;;6.40;;
9422;SDS011;65863;49.506;10.400;2023-08-20T02:57:47;7.73;;;6.90;;
9422;SDS011;65863;49.506;10.400;2023-08-20T03:00:31;8.67;;;7.87;;
9422;SDS011;65863;49.506;10.400;2023-08-20T03:03:15;8.00;;;7.03;;
9422;SDS011;65863;49.506;10.400;2023-08-20T03:06:01;9.73;;;7.63;;
9422;SDS011;65863;49.506;10.400;2023-08-20T03:08:45;12.40;;;8.57;;
9422;SDS011;65863;49.506;10.400;2023-08-20T03:11:29;8.67;;;7.83;;
9422;SDS011;65863;49.506;10.400;2023-08-20T03:14:13;11.40;;;8.40;;
9422;SDS011;65863;49.506;10.400;2023-08-20T03:16:57;8.27;;;7.60;;
9422;SDS011;65863;49.506;10.400;2023-08-20T03:19:53;11.40;;;10.30;;
9422;SDS011;65863;49.506;10.400;2023-08-20T03:22:41;11.10;;;10.13;;
9422;SDS011;65863;49.506;10.400;2023-08-20T03:25:25;11.07;;;9.60;;
9422;SDS011;65863;49.506;10.400;2023-08-20T03:28:09;10.07;;;9.17;;
9422;SDS011;65863;49.506;10.400;2023-08-20T03:30:58;12.97;;;9.93;;
9422;SDS011;65863;49.506;10.400;2023-08-20T03:33:45;10.83;;;8.60;;
9422;SDS011;65863;49.506;10.400;2023-08-20T03:36:30;10.20;;;9.10;;
9422;SDS011;65863;49.506;10.400;2023-08-20T03:39:16;10.50;;;9.40;;
9422;SDS011;65863;49.506;10.400;2023-08-20T03:42:00;9.60;;;8.70;;
9422;SDS011;65863;49.506;10.400;2023-08-20T03:44:44;11.23;;;10.13;;
9422;SDS011;65863;49.506;10.400;2023-08-20T03:47:28;10.03;;;8.90;;
9422;SDS011;65863;49.506;10.400;2023-08-20T03:50:13;11.23;;;9.53;;
9422;SDS011;65863;49.506;10.400;2023-08-20T03:52:57;12.40;;;10.17;;
9422;SDS011;65863;49.506;10.400;2023-08-20T03:55:41;13.30;;;10.53;;
9422;SDS011;65863;49.506;10.400;2023-08-20T03:58:30;12.87;;;10.53;;
9422;SDS011;65863;49.506;10.400;2023-08-20T04:01:14;13.30;;;10.07;;
9422;SDS011;65863;49.506;10.400;2023-08-20T04:03:59;11.17;;;9.93;;
9422;SDS011;65863;49.506;10.400;2023-08-20T04:06:44;10.57;;;9.63;;
9422;SDS011;65863;49.506;10.400;2023-08-20T04:09:27;11.57;;;10.50;;
9422;SDS011;65863;49.506;10.400;2023-08-20T04:12:12;15.93;;;10.67;;
9422;SDS011;65863;49.506;10.400;2023-08-20T04:14:56;15.10;;;10.17;;
9422;SDS011;65863;49.506;10.400;2023-08-20T04:17:40;12.03;;;10.40;;
9422;SDS011;65863;49.506;10.400;2023-08-20T04:20:24;12.50;;;9.67;;
9422;SDS011;65863;49.506;10.400;2023-08-20T04:23:08;11.10;;;9.33;;
9422;SDS011;65863;49.506;10.400;2023-08-20T04:25:52;14.27;;;11.73;;
9422;SDS011;65863;49.506;10.400;2023-08-20T04:28:36;12.23;;;11.03;;
9422;SDS011;65863;49.506;10.400;2023-08-20T04:31:20;12.27;;;10.83;;
9422;SDS011;65863;49.506;10.400;2023-08-20T04:34:12;12.10;;;10.67;;
9422;SDS011;65863;49.506;10.400;2023-08-20T04:37:00;12.10;;;9.97;;
9422;SDS011;65863;49.506;10.400;2023-08-20T04:39:45;11.07;;;10.03;;
9422;SDS011;65863;49.506;10.400;2023-08-20T04:42:29;11.87;;;10.77;;
9422;SDS011;65863;49.506;10.400;2023-08-20T04:45:13;12.47;;;11.27;;
9422;SDS011;65863;49.506;10.400;2023-08-20T04:47:57;12.03;;;10.77;;
9422;SDS011;65863;49.506;10.400;2023-08-20T04:50:41;11.50;;;10.43;;
9422;SDS011;65863;49.506;10.400;2023-08-20T04:53:25;12.90;;;11.57;;
9422;SDS011;65863;49.506;10.400;2023-08-20T04:56:12;13.13;;;11.23;;
9422;SDS011;65863;49.506;10.400;2023-08-20T04:58:56;14.77;;;11.03;;
9422;SDS011;65863;49.506;10.400;2023-08-20T05:01:59;12.27;;;11.10;;
9422;SDS011;65863;49.506;10.400;2023-08-20T05:04:57;12.93;;;10.50;;
9422;SDS011;65863;49.506;10.400;2023-08-20T05:07:41;12.37;;;10.10;;
9422;SDS011;65863;49.506;10.400;2023-08-20T05:10:25;10.63;;;9.53;;
9422;SDS011;65863;49.506;10.400;2023-08-20T05:13:11;9.63;;;8.83;;
9422;SDS011;65863;49.506;10.400;2023-08-20T05:15:55;9.50;;;8.70;;
9422;SDS011;65863;49.506;10.400;2023-08-20T05:18:39;10.37;;;9.30;;
9422;SDS011;65863;49.506;10.400;2023-08-20T05:21:24;12.93;;;10.80;;
9422;SDS011;65863;49.506;10.400;2023-08-20T05:24:08;10.70;;;9.60;;
9422;SDS011;65863;49.506;10.400;2023-08-20T05:27:03;10.23;;;8.87;;
9422;SDS011;65863;49.506;10.400;2023-08-20T05:29:49;9.10;;;8.20;;
9422;SDS011;65863;49.506;10.400;2023-08-20T05:32:34;8.77;;;7.90;;
9422;SDS011;65863;49.506;10.400;2023-08-20T05:35:18;7.80;;;7.00;;
9422;SDS011;65863;49.506;10.400;2023-08-20T05:38:02;7.50;;;6.80;;
9422;SDS011;65863;49.506;10.400;2023-08-20T05:40:46;9.30;;;6.80;;
9422;SDS011;65863;49.506;10.400;2023-08-20T05:43:30;9.00;;;6.90;;
9422;SDS011;65863;49.506;10.400;2023-08-20T05:46:14;8.87;;;7.63;;
9422;SDS011;65863;49.506;10.400;2023-08-20T05:48:58;9.37;;;7.30;;
9422;SDS011;65863;49.506;10.400;2023-08-20T05:51:43;8.17;;;6.87;;
9422;SDS011;65863;49.506;10.400;2023-08-20T05:54:28;7.63;;;6.60;;
9422;SDS011;65863;49.506;10.400;2023-08-20T05:57:13;9.83;;;6.77;;
9422;SDS011;65863;49.506;10.400;2023-08-20T05:59:57;8.02;;;6.05;;
9422;SDS011;65863;49.506;10.400;2023-08-20T06:02:41;9.88;;;5.93;;
9422;SDS011;65863;49.506;10.400;2023-08-20T06:05:26;7.30;;;6.60;;
9422;SDS011;65863;49.506;10.400;2023-08-20T06:08:10;9.73;;;6.35;;
9422;SDS011;65863;49.506;10.400;2023-08-20T06:10:54;6.55;;;5.75;;
9422;SDS011;65863;49.506;10.400;2023-08-20T06:13:39;7.07;;;6.38;;
9422;SDS011;65863;49.506;10.400;2023-08-20T06:16:23;7.68;;;5.93;;
9422;SDS011;65863;49.506;10.400;2023-08-20T06:19:07;9.45;;;6.55;;
9422;SDS011;65863;49.506;10.400;2023-08-20T06:21:50;7.88;;;6.22;;
9422;SDS011;65863;49.506;10.400;2023-08-20T06:24:34;8.02;;;6.22;;
9422;SDS011;65863;49.506;10.400;2023-08-20T06:27:18;10.30;;;6.82;;
9422;SDS011;65863;49.506;10.400;2023-08-20T06:30:02;7.75;;;6.38;;
9422;SDS011;65863;49.506;10.400;2023-08-20T06:32:46;8.88;;;6.63;;
9422;SDS011;65863;49.506;10.400;2023-08-20T06:35:30;6.45;;;5.85;;
9422;SDS011;65863;49.506;10.400;2023-08-20T06:38:14;9.00;;;6.55;;
9422;SDS011;65863;49.506;10.400;2023-08-20T06:40:58;7.50;;;5.75;;
9422;SDS011;65863;49.506;10.400;2023-08-20T06:43:42;8.60;;;5.93;;
9422;SDS011;65863;49.506;10.400;2023-08-20T06:46:26;6.63;;;5.90;;
9422;SDS011;65863;49.506;10.400;2023-08-20T06:49:10;6.63;;;6.03;;
9422;SDS011;65863;49.506;10.400;2023-08-20T06:51:54;8.77;;;5.65;;
9422;SDS011;65863;49.506;10.400;2023-08-20T06:54:38;7.03;;;6.07;;
9422;SDS011;65863;49.506;10.400;2023-08-20T06:57:22;9.82;;;6.43;;
9422;SDS011;65863;49.506;10.400;2023-08-20T07:00:06;6.47;;;5.88;;
9422;SDS011;65863;49.506;10.400;2023-08-20T07:02:50;6.68;;;5.78;;
9422;SDS011;65863;49.506;10.400;2023-08-20T07:05:34;9.50;;;6.25;;
9422;SDS011;65863;49.506;10.400;2023-08-20T07:08:18;6.80;;;5.90;;
9422;SDS011;65863;49.506;10.400;2023-08-20T07:11:02;7.03;;;5.45;;
9422;SDS011;65863;49.506;10.400;2023-08-20T07:13:46;6.88;;;6.18;;
9422;SDS011;65863;49.506;10.400;2023-08-20T07:16:31;7.43;;;5.88;;
9422;SDS011;65863;49.506;10.400;2023-08-20T07:19:15;8.07;;;5.72;;
9422;SDS011;65863;49.506;10.400;2023-08-20T07:21:59;8.20;;;5.78;;
9422;SDS011;65863;49.506;10.400;2023-08-20T07:24:43;8.88;;;5.18;;
9422;SDS011;65863;49.506;10.400;2023-08-20T07:27:26;7.45;;;5.60;;
9422;SDS011;65863;49.506;10.400;2023-08-20T07:30:11;6.07;;;5.43;;
9422;SDS011;65863;49.506;10.400;2023-08-20T07:32:55;6.05;;;5.47;;
9422;SDS011;65863;49.506;10.400;2023-08-20T07:35:39;9.50;;;5.83;;
9422;SDS011;65863;49.506;10.400;2023-08-20T07:38:23;6.80;;;5.40;;
9422;SDS011;65863;49.506;10.400;2023-08-20T07:41:07;7.63;;;5.30;;
9422;SDS011;65863;49.506;10.400;2023-08-20T07:43:52;8.17;;;5.33;;
9422;SDS011;65863;49.506;10.400;2023-08-20T07:46:37;5.60;;;4.78;;
9422;SDS011;65863;49.506;10.400;2023-08-20T07:49:21;6.90;;;5.03;;
9422;SDS011;65863;49.506;10.400;2023-08-20T07:52:05;7.15;;;5.13;;
9422;SDS011;65863;49.506;10.400;2023-08-20T07:54:49;8.55;;;4.70;;
9422;SDS011;65863;49.506;10.400;2023-08-20T07:57:33;5.78;;;4.90;;
9422;SDS011;65863;49.506;10.400;2023-08-20T08:00:17;9.00;;;5.18;;
9422;SDS011;65863;49.506;10.400;2023-08-20T08:03:01;7.47;;;5.10;;
9422;SDS011;65863;49.506;10.400;2023-08-20T08:05:48;10.18;;;4.53;;
9422;SDS011;65863;49.506;10.400;2023-08-20T08:08:37;6.57;;;4.80;;
9422;SDS011;65863;49.506;10.400;2023-08-20T08:11:25;7.20;;;4.80;;
9422;SDS011;65863;49.506;10.400;2023-08-20T08:14:10;7.03;;;4.47;;
9422;SDS011;65863;49.506;10.400;2023-08-20T08:16:55;7.88;;;4.57;;
9422;SDS011;65863;49.506;10.400;2023-08-20T08:19:39;6.20;;;4.53;;
9422;SDS011;65863;49.506;10.400;2023-08-20T08:22:23;7.15;;;4.88;;
9422;SDS011;65863;49.506;10.400;2023-08-20T08:25:07;6.18;;;4.28;;
9422;SDS011;65863;49.506;10.400;2023-08-20T08:27:51;5.90;;;4.72;;
9422;SDS011;65863;49.506;10.400;2023-08-20T08:30:36;10.52;;;4.55;;
9422;SDS011;65863;49.506;10.400;2023-08-20T08:33:21;6.30;;;4.75;;
9422;SDS011;65863;49.506;10.400;2023-08-20T08:36:05;6.93;;;4.90;;
9422;SDS011;65863;49.506;10.400;2023-08-20T08:38:49;5.95;;;4.22;;
9422;SDS011;65863;49.506;10.400;2023-08-20T08:41:33;5.03;;;4.38;;
9422;SDS011;65863;49.506;10.400;2023-08-20T08:44:20;9.20;;;4.63;;
9422;SDS011;65863;49.506;10.400;2023-08-20T08:47:05;6.60;;;4.47;;
9422;SDS011;65863;49.506;10.400;2023-08-20T08:49:49;7.10;;;4.53;;
9422;SDS011;65863;49.506;10.400;2023-08-20T08:52:34;5.22;;;4.40;;
9422;SDS011;65863;49.506;10.400;2023-08-20T08:55:20;7.05;;;4.07;;
9422;SDS011;65863;49.506;10.400;2023-08-20T08:58:04;6.75;;;4.30;;
9422;SDS011;65863;49.506;10.400;2023-08-20T09:00:48;7.07;;;4.50;;
9422;SDS011;65863;49.506;10.400;2023-08-20T09:03:33;6.25;;;4.78;;
9422;SDS011;65863;49.506;10.400;2023-08-20T09:06:17;6.88;;;4.63;;
9422;SDS011;65863;49.506;10.400;2023-08-20T09:09:04;5.35;;;4.30;;
9422;SDS011;65863;49.506;10.400;2023-08-20T09:11:49;7.43;;;4.55;;
9422;SDS011;65863;49.506;10.400;2023-08-20T09:14:34;9.82;;;4.03;;
9422;SDS011;65863;49.506;10.400;2023-08-20T09:17:18;6.15;;;3.95;;
9422;SDS011;65863;49.506;10.400;2023-08-20T09:20:05;5.32;;;4.22;;
9422;SDS011;65863;49.506;10.400;2023-08-20T09:22:50;5.72;;;3.90;;
9422;SDS011;65863;49.506;10.400;2023-08-20T09:25:34;8.55;;;4.75;;
9422;SDS011;65863;49.506;10.400;2023-08-20T09:28:18;6.20;;;4.30;;
9422;SDS011;65863;49.506;10.400;2023-08-20T09:31:02;5.90;;;4.13;;
9422;SDS011;65863;49.506;10.400;2023-08-20T09:33:55;4.90;;;4.30;;
9422;SDS011;65863;49.506;10.400;2023-08-20T09:36:40;7.00;;;4.20;;
9422;SDS011;65863;49.506;10.400;2023-08-20T09:39:24;5.78;;;4.00;;
9422;SDS011;65863;49.506;10.400;2023-08-20T09:42:08;8.15;;;4.22;;
9422;SDS011;65863;49.506;10.400;2023-08-20T09:44:53;6.13;;;4.35;;
9422;SDS011;65863;49.506;10.400;2023-08-20T09:47:37;7.70;;;4.38;;
9422;SDS011;65863;49.506;10.400;2023-08-20T09:50:23;5.50;;;3.90;;
9422;SDS011;65863;49.506;10.400;2023-08-20T09:53:12;6.05;;;4.00;;
9422;SDS011;65863;49.506;10.400;2023-08-20T09:56:03;5.35;;;4.00;;
9422;SDS011;65863;49.506;10.400;2023-08-20T09:58:53;6.13;;;3.83;;
9422;SDS011;65863;49.506;10.400;2023-08-20T10:01:38;4.22;;;3.83;;
9422;SDS011;65863;49.506;10.400;2023-08-20T10:04:22;6.68;;;3.75;;
9422;SDS011;65863;49.506;10.400;2023-08-20T10:07:06;4.10;;;3.70;;
9422;SDS011;65863;49.506;10.400;2023-08-20T10:09:51;6.60;;;4.07;;
9422;SDS011;65863;49.506;10.400;2023-08-20T10:12:36;6.82;;;3.60;;
9422;SDS011;65863;49.506;10.400;2023-08-20T10:15:22;6.35;;;3.83;;
9422;SDS011;65863;49.506;10.400;2023-08-20T10:18:07;7.55;;;4.47;;
9422;SDS011;65863;49.506;10.400;2023-08-20T10:20:52;9.75;;;4.40;;
9422;SDS011;65863;49.506;10.400;2023-08-20T10:23:37;5.70;;;3.90;;
9422;SDS011;65863;49.506;10.400;2023-08-20T10:26:25;4.15;;;3.72;;
9422;SDS011;65863;49.506;10.400;2023-08-20T10:32:44;4.60;;;3.58;;
9422;SDS011;65863;49.506;10.400;2023-08-20T10:38:23;5.55;;;3.80;;
9422;SDS011;65863;49.506;10.400;2023-08-20T10:41:07;3.67;;;3.20;;
9422;SDS011;65863;49.506;10.400;2023-08-20T10:43:53;5.05;;;2.97;;
9422;SDS011;65863;49.506;10.400;2023-08-20T10:46:49;3.83;;;3.40;;
9422;SDS011;65863;49.506;10.400;2023-08-20T10:49:34;6.30;;;4.07;;
9422;SDS011;65863;49.506;10.400;2023-08-20T10:52:27;8.48;;;3.80;;
9422;SDS011;65863;49.506;10.400;2023-08-20T10:55:12;4.85;;;3.95;;
9422;SDS011;65863;49.506;10.400;2023-08-20T10:57:57;6.45;;;3.55;;
9422;SDS011;65863;49.506;10.400;2023-08-20T11:00:43;3.95;;;3.30;;
9422;SDS011;65863;49.506;10.400;2023-08-20T11:03:27;6.10;;;3.40;;
9422;SDS011;65863;49.506;10.400;2023-08-20T11:06:11;4.85;;;3.97;;
9422;SDS011;65863;49.506;10.400;2023-08-20T11:08:56;3.60;;;3.30;;
9422;SDS011;65863;49.506;10.400;2023-08-20T11:11:40;5.38;;;3.50;;
9422;SDS011;65863;49.506;10.400;2023-08-20T11:14:24;5.80;;;3.17;;
9422;SDS011;65863;49.506;10.400;2023-08-20T11:17:08;4.72;;;3.75;;
9422;SDS011;65863;49.506;10.400;2023-08-20T11:19:52;6.07;;;3.50;;
9422;SDS011;65863;49.506;10.400;2023-08-20T11:22:38;5.78;;;3.42;;
9422;SDS011;65863;49.506;10.400;2023-08-20T11:25:23;8.93;;;3.45;;
9422;SDS011;65863;49.506;10.400;2023-08-20T11:28:07;4.38;;;3.50;;
9422;SDS011;65863;49.506;10.400;2023-08-20T11:30:52;5.38;;;3.75;;
9422;SDS011;65863;49.506;10.400;2023-08-20T11:33:37;4.57;;;3.78;;
9422;SDS011;65863;49.506;10.400;2023-08-20T11:36:20;5.32;;;3.25;;
9422;SDS011;65863;49.506;10.400;2023-08-20T11:39:05;8.25;;;3.70;;
9422;SDS011;65863;49.506;10.400;2023-08-20T11:41:49;4.18;;;3.22;;
9422;SDS011;65863;49.506;10.400;2023-08-20T11:44:41;5.68;;;3.65;;
9422;SDS011;65863;49.506;10.400;2023-08-20T11:47:26;5.50;;;3.83;;
9422;SDS011;65863;49.506;10.400;2023-08-20T11:50:10;6.90;;;3.38;;
9422;SDS011;65863;49.506;10.400;2023-08-20T11:52:54;6.50;;;3.67;;
9422;SDS011;65863;49.506;10.400;2023-08-20T11:55:39;4.72;;;3.70;;
9422;SDS011;65863;49.506;10.400;2023-08-20T11:58:24;4.32;;;3.60;;
9422;SDS011;65863;49.506;10.400;2023-08-20T12:01:08;6.35;;;3.40;;
9422;SDS011;65863;49.506;10.400;2023-08-20T12:03:52;4.60;;;3.60;;
9422;SDS011;65863;49.506;10.400;2023-08-20T12:06:37;8.68;;;3.67;;
9422;SDS011;65863;49.506;10.400;2023-08-20T12:09:22;10.52;;;4.05;;
9422;SDS011;65863;49.506;10.400;2023-08-20T12:12:07;10.25;;;3.90;;
9422;SDS011;65863;49.506;10.400;2023-08-20T12:14:51;6.97;;;3.95;;
9422;SDS011;65863;49.506;10.400;2023-08-20T12:17:35;4.55;;;3.58;;
9422;SDS011;65863;49.506;10.400;2023-08-20T12:20:19;5.00;;;3.70;;
9422;SDS011;65863;49.506;10.400;2023-08-20T12:23:05;6.32;;;3.92;;
9422;SDS011;65863;49.506;10.400;2023-08-20T12:25:50;4.80;;;3.50;;
9422;SDS011;65863;49.506;10.400;2023-08-20T12:28:35;7.60;;;3.70;;
9422;SDS011;65863;49.506;10.400;2023-08-20T12:31:19;7.38;;;3.53;;
9422;SDS011;65863;49.506;10.400;2023-08-20T12:34:03;6.28;;;3.60;;
9422;SDS011;65863;49.506;10.400;2023-08-20T12:36:48;4.68;;;3.35;;
9422;SDS011;65863;49.506;10.400;2023-08-20T12:39:32;4.43;;;3.28;;
9422;SDS011;65863;49.506;10.400;2023-08-20T12:42:16;5.93;;;3.55;;
9422;SDS011;65863;49.506;10.400;2023-08-20T12:45:09;5.80;;;3.67;;
9422;SDS011;65863;49.506;10.400;2023-08-20T12:47:54;8.02;;;3.75;;
9422;SDS011;65863;49.506;10.400;2023-08-20T12:50:37;5.43;;;3.53;;
9422;SDS011;65863;49.506;10.400;2023-08-20T12:53:22;4.97;;;3.35;;
9422;SDS011;65863;49.506;10.400;2023-08-20T12:56:05;5.97;;;3.47;;
9422;SDS011;65863;49.506;10.400;2023-08-20T12:58:50;5.50;;;3.30;;
9422;SDS011;65863;49.506;10.400;2023-08-20T13:01:34;6.32;;;3.22;;
9422;SDS011;65863;49.506;10.400;2023-08-20T13:04:17;5.72;;;3.60;;
9422;SDS011;65863;49.506;10.400;2023-08-20T13:07:02;5.00;;;3.42;;
9422;SDS011;65863;49.506;10.400;2023-08-20T13:09:47;7.93;;;3.40;;
9422;SDS011;65863;49.506;10.400;2023-08-20T13:12:32;5.35;;;3.22;;
9422;SDS011;65863;49.506;10.400;2023-08-20T13:15:17;5.30;;;3.00;;
9422;SDS011;65863;49.506;10.400;2023-08-20T13:18:17;5.82;;;3.20;;
9422;SDS011;65863;49.506;10.400;2023-08-20T13:21:01;10.05;;;3.05;;
9422;SDS011;65863;49.506;10.400;2023-08-20T13:23:47;6.55;;;3.40;;
9422;SDS011;65863;49.506;10.400;2023-08-20T13:26:31;3.65;;;2.75;;
9422;SDS011;65863;49.506;10.400;2023-08-20T13:29:15;5.55;;;2.70;;
9422;SDS011;65863;49.506;10.400;2023-08-20T13:31:59;5.05;;;3.08;;
9422;SDS011;65863;49.506;10.400;2023-08-20T13:34:44;6.75;;;3.03;;
9422;SDS011;65863;49.506;10.400;2023-08-20T13:37:28;4.05;;;3.20;;
9422;SDS011;65863;49.506;10.400;2023-08-20T13:40:13;5.80;;;3.20;;
9422;SDS011;65863;49.506;10.400;2023-08-20T13:42:57;4.25;;;3.03;;
9422;SDS011;65863;49.506;10.400;2023-08-20T13:45:41;7.50;;;3.10;;
9422;SDS011;65863;49.506;10.400;2023-08-20T13:48:25;3.38;;;2.95;;
9422;SDS011;65863;49.506;10.400;2023-08-20T13:51:09;4.95;;;3.30;;
9422;SDS011;65863;49.506;10.400;2023-08-20T13:53:53;6.97;;;3.28;;
9422;SDS011;65863;49.506;10.400;2023-08-20T13:56:38;6.68;;;3.00;;
9422;SDS011;65863;49.506;10.400;2023-08-20T13:59:22;3.60;;;3.08;;
9422;SDS011;65863;49.506;10.400;2023-08-20T14:02:06;6.03;;;3.20;;
9422;SDS011;65863;49.506;10.400;2023-08-20T14:04:51;6.57;;;3.65;;
9422;SDS011;65863;49.506;10.400;2023-08-20T14:07:35;6.95;;;3.60;;
9422;SDS011;65863;49.506;10.400;2023-08-20T14:10:19;3.67;;;2.88;;
9422;SDS011;65863;49.506;10.400;2023-08-20T14:13:03;6.13;;;3.45;;
9422;SDS011;65863;49.506;10.400;2023-08-20T14:15:47;6.32;;;3.00;;
9422;SDS011;65863;49.506;10.400;2023-08-20T14:18:31;3.17;;;2.88;;
9422;SDS011;65863;49.506;10.400;2023-08-20T14:21:14;8.90;;;3.22;;
9422;SDS011;65863;49.506;10.400;2023-08-20T14:23:59;5.00;;;2.85;;
9422;SDS011;65863;49.506;10.400;2023-08-20T14:26:43;5.03;;;3.10;;
9422;SDS011;65863;49.506;10.400;2023-08-20T14:29:27;5.05;;;2.80;;
9422;SDS011;65863;49.506;10.400;2023-08-20T14:32:10;5.50;;;3.42;;
9422;SDS011;65863;49.506;10.400;2023-08-20T14:34:54;4.47;;;3.28;;
9422;SDS011;65863;49.506;10.400;2023-08-20T14:37:38;4.85;;;3.28;;
9422;SDS011;65863;49.506;10.400;2023-08-20T14:40:22;8.80;;;2.85;;
9422;SDS011;65863;49.506;10.400;2023-08-20T14:43:07;5.35;;;3.40;;
9422;SDS011;65863;49.506;10.400;2023-08-20T14:45:51;6.00;;;3.42;;
9422;SDS011;65863;49.506;10.400;2023-08-20T14:48:35;4.88;;;3.20;;
9422;SDS011;65863;49.506;10.400;2023-08-20T14:51:24;5.32;;;3.10;;
9422;SDS011;65863;49.506;10.400;2023-08-20T14:54:11;5.40;;;3.63;;
9422;SDS011;65863;49.506;10.400;2023-08-20T14:56:55;8.10;;;3.05;;
9422;SDS011;65863;49.506;10.400;2023-08-20T14:59:39;6.25;;;2.95;;
9422;SDS011;65863;49.506;10.400;2023-08-20T15:02:23;5.10;;;3.15;;
9422;SDS011;65863;49.506;10.400;2023-08-20T15:05:07;7.70;;;3.25;;
9422;SDS011;65863;49.506;10.400;2023-08-20T15:07:51;4.82;;;2.65;;
9422;SDS011;65863;49.506;10.400;2023-08-20T15:10:35;11.48;;;3.03;;
9422;SDS011;65863;49.506;10.400;2023-08-20T15:13:19;5.40;;;2.78;;
9422;SDS011;65863;49.506;10.400;2023-08-20T15:16:03;3.90;;;3.25;;
9422;SDS011;65863;49.506;10.400;2023-08-20T15:18:47;3.83;;;3.15;;
9422;SDS011;65863;49.506;10.400;2023-08-20T15:21:31;4.40;;;2.95;;
9422;SDS011;65863;49.506;10.400;2023-08-20T15:24:15;7.22;;;3.28;;
9422;SDS011;65863;49.506;10.400;2023-08-20T15:26:59;4.30;;;3.13;;
9422;SDS011;65863;49.506;10.400;2023-08-20T15:29:44;5.72;;;2.90;;
9422;SDS011;65863;49.506;10.400;2023-08-20T15:32:29;5.03;;;3.63;;
9422;SDS011;65863;49.506;10.400;2023-08-20T15:35:13;6.30;;;3.47;;
9422;SDS011;65863;49.506;10.400;2023-08-20T15:37:57;4.20;;;2.83;;
9422;SDS011;65863;49.506;10.400;2023-08-20T15:40:41;3.78;;;3.28;;
9422;SDS011;65863;49.506;10.400;2023-08-20T15:43:25;4.47;;;2.97;;
9422;SDS011;65863;49.506;10.400;2023-08-20T15:46:11;5.53;;;3.20;;
9422;SDS011;65863;49.506;10.400;2023-08-20T15:48:55;3.40;;;2.90;;
9422;SDS011;65863;49.506;10.400;2023-08-20T15:51:40;6.47;;;3.75;;
9422;SDS011;65863;49.506;10.400;2023-08-20T15:54:26;5.00;;;3.10;;
9422;SDS011;65863;49.506;10.400;2023-08-20T15:57:10;4.78;;;3.10;;
9422;SDS011;65863;49.506;10.400;2023-08-20T15:59:55;7.45;;;3.28;;
9422;SDS011;65863;49.506;10.400;2023-08-20T16:02:39;6.43;;;3.20;;
9422;SDS011;65863;49.506;10.400;2023-08-20T16:05:24;8.50;;;3.30;;
9422;SDS011;65863;49.506;10.400;2023-08-20T16:08:08;6.03;;;3.20;;
9422;SDS011;65863;49.506;10.400;2023-08-20T16:10:52;3.78;;;3.08;;
9422;SDS011;65863;49.506;10.400;2023-08-20T16:13:36;7.07;;;3.20;;
9422;SDS011;65863;49.506;10.400;2023-08-20T16:16:20;4.50;;;3.10;;
9422;SDS011;65863;49.506;10.400;2023-08-20T16:19:03;4.80;;;3.00;;
9422;SDS011;65863;49.506;10.400;2023-08-20T16:21:47;7.65;;;3.80;;
9422;SDS011;65863;49.506;10.400;2023-08-20T16:24:31;5.30;;;3.42;;
9422;SDS011;65863;49.506;10.400;2023-08-20T16:27:15;4.65;;;3.22;;
9422;SDS011;65863;49.506;10.400;2023-08-20T16:30:00;4.50;;;3.15;;
9422;SDS011;65863;49.506;10.400;2023-08-20T16:32:46;3.95;;;3.30;;
9422;SDS011;65863;49.506;10.400;2023-08-20T16:35:30;5.90;;;3.28;;
9422;SDS011;65863;49.506;10.400;2023-08-20T16:38:15;6.53;;;3.10;;